createdAt,value
2022-10-18T00:01:03.335Z,17.50
2022-10-18T00:03:31.550Z,17.50
2022-10-18T00:06:02.002Z,17.50
2022-10-18T00:08:30.362Z,17.50
2022-10-18T00:10:58.626Z,17.50
2022-10-18T00:13:27.803Z,17.60
2022-10-18T00:15:59.249Z,17.60
2022-10-18T00:18:27.605Z,17.50
2022-10-18T00:21:01.776Z,17.50
2022-10-18T00:23:31.504Z,17.50
2022-10-18T00:26:04.804Z,17.50
2022-10-18T00:28:33.799Z,17.50
2022-10-18T00:31:14.512Z,17.50
2022-10-18T00:33:43.987Z,17.40
2022-10-18T00:36:14.377Z,17.30
2022-10-18T00:38:42.475Z,17.40
2022-10-18T00:41:14.795Z,17.40
2022-10-18T00:43:58.012Z,17.30
2022-10-18T00:46:28.238Z,17.30
2022-10-18T00:48:57.152Z,17.30
2022-10-18T00:51:31.017Z,17.30
2022-10-18T00:53:59.235Z,17.20
2022-10-18T00:56:27.962Z,17.30
2022-10-18T00:58:56.303Z,17.30
2022-10-18T01:01:27.542Z,17.20
2022-10-18T01:03:58.107Z,17.20
2022-10-18T01:06:29.807Z,17.20
2022-10-18T01:09:12.634Z,17.20
2022-10-18T01:12:04.225Z,17.10
2022-10-18T01:14:46.434Z,17.10
2022-10-18T01:17:19.448Z,17.10
2022-10-18T01:20:30.971Z,17.10
2022-10-18T01:23:07.117Z,17.10
2022-10-18T01:25:43.282Z,17.00
2022-10-18T01:28:29.733Z,17.10
2022-10-18T01:31:02.035Z,17.00
2022-10-18T01:33:38.601Z,17.10
2022-10-18T01:36:12.844Z,17.00
2022-10-18T01:38:43.624Z,17.00
2022-10-18T01:41:15.837Z,17.00
2022-10-18T01:43:46.711Z,17.00
2022-10-18T01:46:21.206Z,17.00
2022-10-18T01:48:54.962Z,16.90
2022-10-18T01:51:26.801Z,16.90
2022-10-18T01:53:55.409Z,16.90
2022-10-18T01:56:38.993Z,16.80
2022-10-18T01:59:39.556Z,16.90
2022-10-18T02:02:20.169Z,16.90
2022-10-18T02:04:55.555Z,16.90
2022-10-18T02:07:30.482Z,16.80
2022-10-18T02:10:07.033Z,16.80
2022-10-18T02:12:37.281Z,16.80
2022-10-18T02:15:08.510Z,16.80
2022-10-18T02:17:39.236Z,16.70
2022-10-18T02:20:09.947Z,16.70
2022-10-18T02:22:42.450Z,16.70
2022-10-18T02:25:17.595Z,16.80
2022-10-18T02:27:45.686Z,16.70
2022-10-18T02:30:15.563Z,16.70
2022-10-18T02:32:50.736Z,16.80
2022-10-18T02:35:23.039Z,16.70
2022-10-18T02:37:53.498Z,16.70
2022-10-18T02:40:21.717Z,16.70
2022-10-18T02:42:52.651Z,16.60
2022-10-18T02:45:21.050Z,16.60
2022-10-18T02:47:50.414Z,16.60
2022-10-18T02:50:18.942Z,16.70
2022-10-18T02:52:46.976Z,16.70
2022-10-18T02:55:15.184Z,16.70
2022-10-18T02:57:43.355Z,16.70
2022-10-18T03:00:12.353Z,16.60
2022-10-18T03:02:40.669Z,16.60
2022-10-18T03:05:10.216Z,16.60
2022-10-18T03:07:38.241Z,16.60
2022-10-18T03:10:07.214Z,16.60
2022-10-18T03:12:35.454Z,16.60
2022-10-18T03:15:03.447Z,16.50
2022-10-18T03:17:31.819Z,16.60
2022-10-18T03:20:00.019Z,16.50
2022-10-18T03:25:02.636Z,16.50
2022-10-18T03:27:30.828Z,16.50
2022-10-18T03:30:01.027Z,16.50
2022-10-18T03:32:29.122Z,16.50
2022-10-18T03:34:57.625Z,16.50
2022-10-18T03:37:25.697Z,16.40
2022-10-18T03:39:55.441Z,16.40
2022-10-18T03:42:25.537Z,16.40
2022-10-18T03:44:53.550Z,16.40
2022-10-18T03:47:21.938Z,16.40
2022-10-18T03:49:53.230Z,16.40
2022-10-18T03:52:24.646Z,16.40
2022-10-18T03:54:54.092Z,16.30
2022-10-18T03:57:22.172Z,16.30
2022-10-18T03:59:50.156Z,16.30
2022-10-18T04:02:18.680Z,16.20
2022-10-18T04:04:46.704Z,16.20
2022-10-18T04:07:14.763Z,16.30
2022-10-18T04:09:42.815Z,16.30
2022-10-18T04:12:12.174Z,16.30
2022-10-18T04:14:40.181Z,16.30
2022-10-18T04:17:08.607Z,16.30
2022-10-18T04:19:36.694Z,16.20
2022-10-18T04:22:04.734Z,16.30
2022-10-18T04:24:32.769Z,16.20
2022-10-18T04:27:00.755Z,16.20
2022-10-18T04:29:30.142Z,16.20
2022-10-18T04:31:58.530Z,16.30
2022-10-18T04:34:26.557Z,16.30
2022-10-18T04:36:54.545Z,16.40
2022-10-18T04:39:23.055Z,16.30
2022-10-18T04:41:51.027Z,16.30
2022-10-18T04:44:19.036Z,16.30
2022-10-18T04:46:48.470Z,16.30
2022-10-18T04:49:16.658Z,16.40
2022-10-18T04:51:44.643Z,16.40
2022-10-18T04:54:12.937Z,16.40
2022-10-18T04:56:40.971Z,16.40
2022-10-18T04:59:09.095Z,16.30
2022-10-18T05:01:37.526Z,16.20
2022-10-18T05:04:06.954Z,16.20
2022-10-18T05:06:35.319Z,16.30
2022-10-18T05:09:03.314Z,16.80
2022-10-18T05:11:31.359Z,17.80
2022-10-18T05:13:59.664Z,18.30
2022-10-18T05:16:28.411Z,18.40
2022-10-18T05:18:56.445Z,18.30
2022-10-18T05:21:26.219Z,18.40
2022-10-18T05:23:57.074Z,18.60
2022-10-18T05:26:25.125Z,18.70
2022-10-18T05:28:53.211Z,18.60
2022-10-18T05:31:21.347Z,18.70
2022-10-18T05:33:49.759Z,18.80
2022-10-18T05:36:18.165Z,18.90
2022-10-18T05:38:48.365Z,19.00
2022-10-18T05:41:16.787Z,19.00
2022-10-18T05:43:45.122Z,18.80
2022-10-18T05:46:15.477Z,18.90
2022-10-18T05:48:44.920Z,19.20
2022-10-18T05:51:13.398Z,19.20
2022-10-18T05:53:41.745Z,19.20
2022-10-18T05:56:12.479Z,18.80
2022-10-18T05:58:41.270Z,18.60
2022-10-18T06:01:10.234Z,18.80
2022-10-18T06:03:38.702Z,19.10
2022-10-18T06:06:09.197Z,19.30
2022-10-18T06:08:37.943Z,19.10
2022-10-18T06:11:08.789Z,19.20
2022-10-18T06:13:41.947Z,19.30
2022-10-18T06:16:10.401Z,19.20
2022-10-18T06:18:38.711Z,19.30
2022-10-18T06:21:07.401Z,19.50
2022-10-18T06:23:36.303Z,19.10
2022-10-18T06:26:06.147Z,18.90
2022-10-18T06:28:36.227Z,18.90
2022-10-18T06:31:07.020Z,19.00
2022-10-18T06:33:36.230Z,19.30
2022-10-18T06:36:06.596Z,19.10
2022-10-18T06:38:35.395Z,19.10
2022-10-18T06:41:04.236Z,19.20
2022-10-18T06:43:32.682Z,19.10
2022-10-18T06:46:03.432Z,19.10
2022-10-18T06:48:33.407Z,19.20
2022-10-18T06:51:04.031Z,19.40
2022-10-18T06:53:33.638Z,19.30
2022-10-18T06:56:02.155Z,19.40
2022-10-18T06:58:30.839Z,19.20
2022-10-18T07:00:59.584Z,19.00
2022-10-18T07:03:27.567Z,18.60
2022-10-18T07:06:02.458Z,18.70
2022-10-18T07:08:31.257Z,18.30
2022-10-18T07:10:59.375Z,18.30
2022-10-18T07:13:32.864Z,18.40
2022-10-18T07:16:03.532Z,18.50
2022-10-18T07:18:31.523Z,19.10
2022-10-18T07:21:02.698Z,18.60
2022-10-18T07:23:30.707Z,18.30
2022-10-18T07:25:58.682Z,18.50
2022-10-18T07:28:26.939Z,18.40
2022-10-18T07:30:55.038Z,18.10
2022-10-18T07:33:23.501Z,17.70
2022-10-18T07:35:51.465Z,17.50
2022-10-18T07:38:20.863Z,17.40
2022-10-18T07:40:48.890Z,17.30
2022-10-18T07:43:16.866Z,17.00
2022-10-18T07:45:53.518Z,17.00
2022-10-18T07:48:21.634Z,17.10
2022-10-18T07:50:49.697Z,17.20
2022-10-18T07:53:17.977Z,17.00
2022-10-18T07:55:47.337Z,17.00
2022-10-18T07:58:15.363Z,16.90
2022-10-18T08:00:43.382Z,16.80
2022-10-18T08:03:11.410Z,17.10
2022-10-18T08:05:39.428Z,17.10
2022-10-18T08:08:08.167Z,17.00
2022-10-18T08:10:36.885Z,17.20
2022-10-18T08:13:06.322Z,17.10
2022-10-18T08:15:34.306Z,17.10
2022-10-18T08:18:02.355Z,17.10
2022-10-18T08:20:31.977Z,17.10
2022-10-18T08:23:00.855Z,17.10
2022-10-18T08:25:29.387Z,17.40
2022-10-18T08:27:57.528Z,17.40
2022-10-18T08:30:26.903Z,17.30
2022-10-18T08:32:55.088Z,17.30
2022-10-18T08:35:23.212Z,17.40
2022-10-18T08:37:51.357Z,17.60
2022-10-18T08:40:20.349Z,17.50
2022-10-18T08:43:08.394Z,17.60
2022-10-18T08:45:43.325Z,17.70
2022-10-18T08:48:24.663Z,17.40
2022-10-18T08:50:55.343Z,17.50
2022-10-18T08:53:29.292Z,17.40
2022-10-18T08:56:04.818Z,17.50
2022-10-18T08:58:33.985Z,17.50
2022-10-18T09:01:15.621Z,17.60
2022-10-18T09:04:01.498Z,17.60
2022-10-18T09:06:36.311Z,17.50
2022-10-18T09:09:24.498Z,17.50
2022-10-18T09:12:03.777Z,17.50
2022-10-18T09:14:49.455Z,17.90
2022-10-18T09:17:27.688Z,18.10
2022-10-18T09:20:09.450Z,18.00
2022-10-18T09:22:52.921Z,17.70
2022-10-18T09:25:23.729Z,18.00
2022-10-18T09:27:57.377Z,18.10
2022-10-18T09:30:42.579Z,18.00
2022-10-18T09:33:31.886Z,18.00
2022-10-18T09:36:04.777Z,17.80
2022-10-18T09:38:36.122Z,17.90
2022-10-18T09:41:12.137Z,17.90
2022-10-18T09:43:48.705Z,17.80
2022-10-18T09:46:19.455Z,18.10
2022-10-18T09:48:52.738Z,18.80
2022-10-18T09:51:22.854Z,19.30
2022-10-18T09:54:04.432Z,19.40
2022-10-18T09:56:40.866Z,19.60
2022-10-18T09:59:36.441Z,19.90
2022-10-18T10:02:05.085Z,19.60
2022-10-18T10:04:34.817Z,19.70
2022-10-18T10:07:03.634Z,19.50
2022-10-18T10:09:38.040Z,19.40
2022-10-18T10:12:06.642Z,19.50
2022-10-18T10:14:44.999Z,19.60
2022-10-18T10:17:24.697Z,19.50
2022-10-18T10:20:03.637Z,19.10
2022-10-18T10:22:36.255Z,19.00
2022-10-18T10:25:05.214Z,19.20
2022-10-18T10:27:41.054Z,19.60
2022-10-18T10:30:23.907Z,19.80
2022-10-18T10:32:53.934Z,19.70
2022-10-18T10:38:28.215Z,19.40
2022-10-18T10:40:56.904Z,19.20
2022-10-18T10:43:42.793Z,19.10
2022-10-18T10:46:13.302Z,19.10
2022-10-18T10:48:48.355Z,19.70
2022-10-18T10:51:19.835Z,19.50
2022-10-18T10:53:52.729Z,19.40
2022-10-18T10:56:29.042Z,19.40
2022-10-18T10:59:02.653Z,19.30
2022-10-18T11:01:33.123Z,18.60
2022-10-18T11:04:03.059Z,18.70
2022-10-18T11:06:46.387Z,19.70
2022-10-18T11:09:31.206Z,20.00
2022-10-18T11:12:19.147Z,19.80
2022-10-18T11:14:51.475Z,20.00
2022-10-18T11:17:28.476Z,19.60
2022-10-18T11:20:29.251Z,19.10
2022-10-18T11:23:03.931Z,19.10
2022-10-18T11:26:08.689Z,19.90
2022-10-18T11:28:51.496Z,20.20
2022-10-18T11:31:25.816Z,20.10
2022-10-18T11:34:09.641Z,20.20
2022-10-18T11:36:56.429Z,19.90
2022-10-18T11:39:46.456Z,19.80
2022-10-18T11:42:22.312Z,20.10
2022-10-18T11:45:01.365Z,20.20
2022-10-18T11:47:38.013Z,19.90
2022-10-18T11:50:15.148Z,20.20
2022-10-18T11:52:49.565Z,20.20
2022-10-18T11:55:33.435Z,20.30
2022-10-18T11:58:09.786Z,20.70
2022-10-18T12:00:49.538Z,20.90
2022-10-18T12:03:33.768Z,20.50
2022-10-18T12:06:06.516Z,20.40
2022-10-18T12:08:38.991Z,20.70
2022-10-18T12:11:14.588Z,20.50
2022-10-18T12:13:49.414Z,20.70
2022-10-18T12:16:33.455Z,20.70
2022-10-18T12:19:14.359Z,20.30
2022-10-18T12:21:43.481Z,20.00
2022-10-18T12:24:18.767Z,19.80
2022-10-18T12:26:51.135Z,20.00
2022-10-18T12:29:25.964Z,20.10
2022-10-18T12:31:56.633Z,20.20
2022-10-18T12:34:38.223Z,20.00
2022-10-18T12:37:29.391Z,20.20
2022-10-18T12:40:18.793Z,19.70
2022-10-18T12:42:52.713Z,20.00
2022-10-18T12:45:30.343Z,19.90
2022-10-18T12:48:01.598Z,19.80
2022-10-18T12:50:36.433Z,20.30
2022-10-18T12:53:20.027Z,20.00
2022-10-18T12:55:51.373Z,20.20
2022-10-18T12:58:29.878Z,20.40
2022-10-18T13:01:09.063Z,20.20
2022-10-18T13:03:56.482Z,20.40
2022-10-18T13:06:28.801Z,20.60
2022-10-18T13:09:19.035Z,20.70
2022-10-18T13:11:47.214Z,20.50
2022-10-18T13:14:53.613Z,20.70
2022-10-18T13:17:38.614Z,20.60
2022-10-18T13:20:26.193Z,20.60
2022-10-18T13:23:06.256Z,20.60
2022-10-18T13:25:42.373Z,20.30
2022-10-18T13:28:26.233Z,20.10
2022-10-18T13:30:58.910Z,20.20
2022-10-18T13:33:34.886Z,20.10
2022-10-18T13:36:06.216Z,20.30
2022-10-18T13:38:43.631Z,20.60
2022-10-18T13:41:16.015Z,20.10
2022-10-18T13:44:11.486Z,20.10
2022-10-18T13:47:18.133Z,19.80
2022-10-18T13:50:03.124Z,19.80
2022-10-18T13:53:01.571Z,19.80
2022-10-18T13:55:44.793Z,19.80
2022-10-18T13:58:20.976Z,19.60
2022-10-18T14:01:00.024Z,19.70
2022-10-18T14:03:58.052Z,19.80
2022-10-18T14:06:30.072Z,19.60
2022-10-18T14:09:09.522Z,19.60
2022-10-18T14:11:51.709Z,19.60
2022-10-18T14:14:26.919Z,19.80
2022-10-18T14:17:03.241Z,19.80
2022-10-18T14:19:37.746Z,19.70
2022-10-18T14:22:14.996Z,19.50
2022-10-18T14:24:46.859Z,19.40
2022-10-18T14:27:19.410Z,19.50
2022-10-18T14:29:48.104Z,19.30
2022-10-18T14:32:27.062Z,19.30
2022-10-18T14:35:09.192Z,19.10
2022-10-18T14:37:47.700Z,19.00
2022-10-18T14:40:35.508Z,19.00
2022-10-18T14:43:05.519Z,19.20
2022-10-18T14:45:33.901Z,18.70
2022-10-18T14:48:16.509Z,18.50
2022-10-18T14:50:47.131Z,18.50
2022-10-18T14:53:21.066Z,18.50
2022-10-18T14:55:55.730Z,18.70
2022-10-18T14:58:24.506Z,18.60
2022-10-18T15:00:52.551Z,18.50
2022-10-18T15:03:21.154Z,18.50
2022-10-18T15:05:59.375Z,18.40
2022-10-18T15:08:35.981Z,18.40
2022-10-18T15:11:04.222Z,18.40
2022-10-18T15:13:33.563Z,18.40
2022-10-18T15:16:02.321Z,18.40
2022-10-18T15:21:11.488Z,18.30
2022-10-18T15:23:40.863Z,18.40
2022-10-18T15:26:13.702Z,18.20
2022-10-18T15:28:50.197Z,18.10
2022-10-18T15:31:25.222Z,18.20
2022-10-18T15:33:54.344Z,18.20
2022-10-18T15:36:29.381Z,18.10
2022-10-18T15:39:08.459Z,18.10
2022-10-18T15:41:49.266Z,18.00
2022-10-18T15:44:23.023Z,18.10
2022-10-18T15:46:53.353Z,18.10
2022-10-18T15:49:51.413Z,17.90
2022-10-18T15:52:39.050Z,17.90
2022-10-18T15:55:45.152Z,18.00
2022-10-18T15:58:19.928Z,17.90
2022-10-18T16:00:49.861Z,17.90
2022-10-18T16:03:19.150Z,17.80
2022-10-18T16:05:47.501Z,17.60
2022-10-18T16:08:20.866Z,17.50
2022-10-18T16:10:49.314Z,17.40
2022-10-18T16:13:18.913Z,17.30
2022-10-18T16:15:47.124Z,17.30
2022-10-18T16:18:18.143Z,17.20
2022-10-18T16:20:46.412Z,17.10
2022-10-18T16:23:19.210Z,17.00
2022-10-18T16:25:47.386Z,17.00
2022-10-18T16:28:19.153Z,17.00
2022-10-18T16:30:53.854Z,16.80
2022-10-18T16:33:22.100Z,16.70
2022-10-18T16:35:50.641Z,16.60
2022-10-18T16:38:24.061Z,16.50
2022-10-18T16:40:52.095Z,16.50
2022-10-18T16:43:21.572Z,16.40
2022-10-18T16:45:50.281Z,16.30
2022-10-18T16:48:21.052Z,16.30
2022-10-18T16:50:49.508Z,16.10
2022-10-18T16:53:17.590Z,16.20
2022-10-18T16:55:45.649Z,16.00
2022-10-18T16:58:18.230Z,15.80
2022-10-18T17:00:47.907Z,15.80
2022-10-18T17:03:16.162Z,15.80
2022-10-18T17:05:44.425Z,15.70
2022-10-18T17:08:19.647Z,15.80
2022-10-18T17:10:49.775Z,15.70
2022-10-18T17:13:18.231Z,15.60
2022-10-18T17:15:47.648Z,15.40
2022-10-18T17:18:19.105Z,15.50
2022-10-18T17:20:48.079Z,15.30
2022-10-18T17:23:16.478Z,15.30
2022-10-18T17:25:57.561Z,15.30
2022-10-18T17:28:33.344Z,15.20
2022-10-18T17:31:02.809Z,15.20
2022-10-18T17:33:30.864Z,15.10
2022-10-18T17:35:59.049Z,15.10
2022-10-18T17:38:27.093Z,15.00
2022-10-18T17:40:55.430Z,14.90
2022-10-18T17:43:23.640Z,14.90
2022-10-18T17:45:55.848Z,14.70
2022-10-18T17:48:25.626Z,14.50
2022-10-18T17:50:53.690Z,14.60
2022-10-18T17:53:23.071Z,14.50
2022-10-18T17:55:51.308Z,14.50
2022-10-18T17:58:19.349Z,14.40
2022-10-18T18:00:47.352Z,14.50
2022-10-18T18:03:15.588Z,14.50
2022-10-18T18:05:45.055Z,14.50
2022-10-18T18:08:13.100Z,14.40
2022-10-18T18:10:41.224Z,14.40
2022-10-18T18:13:09.232Z,14.30
2022-10-18T18:15:37.451Z,14.30
2022-10-18T18:18:05.464Z,14.20
2022-10-18T18:20:33.569Z,14.10
2022-10-18T18:23:02.949Z,14.10
2022-10-18T18:25:31.063Z,14.10
2022-10-18T18:28:03.832Z,14.00
2022-10-18T18:30:35.504Z,13.90
2022-10-18T18:33:03.608Z,13.80
2022-10-18T18:35:31.881Z,13.80
2022-10-18T18:37:59.989Z,13.70
2022-10-18T18:40:29.615Z,13.70
2022-10-18T18:43:07.147Z,13.70
2022-10-18T18:45:52.137Z,13.60
2022-10-18T18:48:20.256Z,13.50
2022-10-18T18:50:50.620Z,13.40
2022-10-18T18:53:19.174Z,13.30
2022-10-18T18:55:50.781Z,13.30
2022-10-18T18:58:19.649Z,13.20
2022-10-18T19:00:48.224Z,13.20
2022-10-18T19:03:16.367Z,13.10
2022-10-18T19:05:44.412Z,13.10
2022-10-18T19:08:12.749Z,13.00
2022-10-18T19:10:40.971Z,13.00
2022-10-18T19:13:10.340Z,13.00
2022-10-18T19:15:38.402Z,13.00
2022-10-18T19:18:06.539Z,13.00
2022-10-18T19:20:34.722Z,13.00
2022-10-18T19:23:04.584Z,12.90
2022-10-18T19:25:32.629Z,12.80
2022-10-18T19:28:00.731Z,12.80
2022-10-18T19:30:30.158Z,12.80
2022-10-18T19:33:04.275Z,12.80
2022-10-18T19:35:32.337Z,12.80
2022-10-18T19:38:01.007Z,12.80
2022-10-18T19:40:29.057Z,12.70
2022-10-18T19:42:57.046Z,12.70
2022-10-18T19:45:25.413Z,12.70
2022-10-18T19:47:54.779Z,12.70
2022-10-18T19:50:22.867Z,12.70
2022-10-18T19:52:50.926Z,12.80
2022-10-18T19:55:19.304Z,12.70
2022-10-18T19:57:47.336Z,12.80
2022-10-18T20:00:19.338Z,12.80
2022-10-18T20:02:47.634Z,12.80
2022-10-18T20:05:17.218Z,12.80
2022-10-18T20:07:47.265Z,12.80
2022-10-18T20:10:15.485Z,12.90
2022-10-18T20:12:43.501Z,12.90
2022-10-18T20:15:12.627Z,12.80
2022-10-18T20:17:40.688Z,12.80
2022-10-18T20:20:09.841Z,12.90
2022-10-18T20:22:39.495Z,12.90
2022-10-18T20:25:07.807Z,12.80
2022-10-18T20:27:36.119Z,12.90
2022-10-18T20:30:08.925Z,12.80
2022-10-18T20:32:39.381Z,12.70
2022-10-18T20:35:08.013Z,12.80
2022-10-18T20:37:36.319Z,12.70
2022-10-18T20:40:06.362Z,12.80
2022-10-18T20:42:34.360Z,12.80
2022-10-18T20:47:36.721Z,12.80
2022-10-18T20:50:05.216Z,12.80
2022-10-18T20:52:33.287Z,12.80
2022-10-18T20:55:01.314Z,12.70
2022-10-18T20:57:34.277Z,12.70
2022-10-18T21:00:05.459Z,12.70
2022-10-18T21:02:33.507Z,12.80
2022-10-18T21:05:01.513Z,12.80
2022-10-18T21:07:30.989Z,12.80
2022-10-18T21:09:59.769Z,12.80
2022-10-18T21:12:29.071Z,12.70
2022-10-18T21:14:58.699Z,12.80
2022-10-18T21:17:26.714Z,12.80
2022-10-18T21:19:55.094Z,12.80
2022-10-18T21:22:23.085Z,12.90
2022-10-18T21:24:51.900Z,12.90
2022-10-18T21:27:19.907Z,12.90
2022-10-18T21:29:49.307Z,12.90
2022-10-18T21:32:18.865Z,12.90
2022-10-18T21:34:47.194Z,12.80
2022-10-18T21:37:15.252Z,12.70
2022-10-18T21:39:43.273Z,12.80
2022-10-18T21:42:12.300Z,12.80
2022-10-18T21:44:40.353Z,12.80
2022-10-18T21:47:08.445Z,12.70
2022-10-18T21:49:38.206Z,12.70
2022-10-18T21:52:06.562Z,12.70
2022-10-18T21:54:34.596Z,12.60
2022-10-18T21:57:02.675Z,12.60
2022-10-18T21:59:30.674Z,12.70
2022-10-18T22:01:59.054Z,12.70
2022-10-18T22:04:27.059Z,12.70
2022-10-18T22:06:56.470Z,12.60
2022-10-18T22:09:24.758Z,12.50
2022-10-18T22:11:54.476Z,12.50
2022-10-18T22:14:23.650Z,12.60
2022-10-18T22:16:51.929Z,12.50
2022-10-18T22:19:20.070Z,12.40
2022-10-18T22:21:48.597Z,12.50
2022-10-18T22:24:18.731Z,12.50
2022-10-18T22:26:47.470Z,12.60
2022-10-18T22:29:17.523Z,12.70
2022-10-18T22:31:46.834Z,12.60
2022-10-18T22:34:16.591Z,12.60
2022-10-18T22:36:45.511Z,12.70
2022-10-18T22:39:14.805Z,12.70
2022-10-18T22:41:44.584Z,12.70
2022-10-18T22:44:13.941Z,12.60
2022-10-18T22:46:43.198Z,12.50
2022-10-18T22:49:12.951Z,12.50
2022-10-18T22:51:41.305Z,12.60
2022-10-18T22:54:09.541Z,12.50
2022-10-18T22:56:37.558Z,12.50
2022-10-18T22:59:06.983Z,12.30
2022-10-18T23:01:35.061Z,12.30
2022-10-18T23:04:03.392Z,12.20
2022-10-18T23:06:33.309Z,12.10
2022-10-18T23:09:04.976Z,12.20
2022-10-18T23:11:34.478Z,12.10
2022-10-18T23:14:03.832Z,12.00
2022-10-18T23:16:33.409Z,11.90
2022-10-18T23:19:01.715Z,11.90
2022-10-18T23:21:30.543Z,11.90
2022-10-18T23:23:59.154Z,11.90
2022-10-18T23:26:28.814Z,12.00
2022-10-18T23:28:57.003Z,11.90
2022-10-18T23:31:26.780Z,12.00
2022-10-18T23:33:58.020Z,12.00
2022-10-18T23:36:26.614Z,12.00
2022-10-18T23:38:54.854Z,12.10
2022-10-18T23:41:22.881Z,12.00
2022-10-18T23:43:51.037Z,12.00
2022-10-18T23:46:20.222Z,12.00
2022-10-18T23:48:49.262Z,12.10
2022-10-18T23:51:19.140Z,12.20
2022-10-18T23:53:47.350Z,12.10
2022-10-18T23:56:17.150Z,12.00
2022-10-18T23:58:45.860Z,11.90
